Missoula International Airport

Airport
ICAO code: 
KMSO
Summary
ICAO Region: 
NAM
Territory: 
Location: 
Missoula, Montana,
Coordinates: 
Aerial View: 
46° 55' 7.74" N, 114° 5' 1.45" W
Airport CFIT: 
Altimeter Temperature Error Correction
Airport WX: 
Mountain Waves
Metar
Observation
KMSO 021553Z 28012G28KT 10SM BKN055 OVC095 14/03 A2998 RMK AO2 PK WND 29029/1524 SLP146 T01390033
Station
Missoula, Missoula International Airport
Date/Time
2021-12-02 15:53:00
Wind direction
280°
Wind speed
12 kts
Lowest cloud amount
broken clouds
Temperature
13.9°C
Dew point
3.3°C
Humidity
48%
Weather condition
n/a

Description

Missoula International Airport is a public use airport located 7 km northwest of the central business district of Missoula, a city in Missoula County, Montana.

Climatology

Semi-arid climate (Köppen climate classification BSk) - Little precipitation, hot summers and cold, moderately snowy winters, sometimes with large changes in temperature in a 24 hour period..

Runways

Designator Length Width Surface Rops
7/25 1406 23 ASP Yes/Yes
11/29 2896 46 ASP Yes/Yes
Airport map: 
Aerial View: 

SKYbrary Partners:

Safety knowledge contributed by: